Terminal Aerodrome Forecast
Issued by NWS

Home | Current Version | Previous Version | Text Only | Print | Product List | Glossary On
Versions: 1 2 3 4 5 6 7 8 9 10 11 12 13 14 15 16
950
FTUS46 KLOX 272358
TAFOXR
TAF
KOXR 272358Z 2800/2824 27015KT P6SM SKC
     FM280400 28005KT P6SM FEW010
     FM281000 VRB03KT 4SM BR OVC008
     FM281700 VRB03KT P6SM BKN012
     FM282000 25012KT P6SM SCT012=

USA.gov is the U.S. government's official web portal to all federal, state and local government web resources and services.